sensor_id;sensor_type;location;lat;lon;timestamp;temperature;humidity
21612;DHT22;47005;52.292;13.452;2022-07-04T00:00:05;22.20;85.60
21612;DHT22;47005;52.292;13.452;2022-07-04T00:02:31;22.20;85.30
21612;DHT22;47005;52.292;13.452;2022-07-04T00:04:57;22.20;85.80
21612;DHT22;47005;52.292;13.452;2022-07-04T00:07:23;22.20;85.50
21612;DHT22;47005;52.292;13.452;2022-07-04T00:09:48;22.20;85.70
21612;DHT22;47005;52.292;13.452;2022-07-04T00:12:14;22.10;85.80
21612;DHT22;47005;52.292;13.452;2022-07-04T00:14:40;22.20;85.90
21612;DHT22;47005;52.292;13.452;2022-07-04T00:17:06;22.10;85.60
21612;DHT22;47005;52.292;13.452;2022-07-04T00:19:31;22.10;85.80
21612;DHT22;47005;52.292;13.452;2022-07-04T00:21:57;22.10;85.90
21612;DHT22;47005;52.292;13.452;2022-07-04T00:24:23;22.10;86.00
21612;DHT22;47005;52.292;13.452;2022-07-04T00:26:48;22.10;86.00
21612;DHT22;47005;52.292;13.452;2022-07-04T00:29:14;22.00;86.00
21612;DHT22;47005;52.292;13.452;2022-07-04T00:31:40;22.00;86.40
21612;DHT22;47005;52.292;13.452;2022-07-04T00:34:06;22.00;86.40
21612;DHT22;47005;52.292;13.452;2022-07-04T00:36:32;21.90;86.30
21612;DHT22;47005;52.292;13.452;2022-07-04T00:38:57;22.00;86.60
21612;DHT22;47005;52.292;13.452;2022-07-04T00:41:23;22.00;86.50
21612;DHT22;47005;52.292;13.452;2022-07-04T00:44:02;21.90;86.50
21612;DHT22;47005;52.292;13.452;2022-07-04T00:46:28;21.90;86.60
21612;DHT22;47005;52.292;13.452;2022-07-04T00:48:54;21.90;86.60
21612;DHT22;47005;52.292;13.452;2022-07-04T00:51:20;21.90;86.60
21612;DHT22;47005;52.292;13.452;2022-07-04T00:53:45;21.90;87.10
21612;DHT22;47005;52.292;13.452;2022-07-04T00:56:11;21.80;86.80
21612;DHT22;47005;52.292;13.452;2022-07-04T00:58:37;21.80;86.70
21612;DHT22;47005;52.292;13.452;2022-07-04T01:01:03;21.80;87.10
21612;DHT22;47005;52.292;13.452;2022-07-04T01:03:29;21.80;87.10
21612;DHT22;47005;52.292;13.452;2022-07-04T01:05:55;21.80;87.00
21612;DHT22;47005;52.292;13.452;2022-07-04T01:08:21;21.80;87.10
21612;DHT22;47005;52.292;13.452;2022-07-04T01:10:47;21.80;87.30
21612;DHT22;47005;52.292;13.452;2022-07-04T01:13:23;21.80;87.00
21612;DHT22;47005;52.292;13.452;2022-07-04T01:15:49;21.80;87.10
21612;DHT22;47005;52.292;13.452;2022-07-04T01:18:16;21.70;86.90
21612;DHT22;47005;52.292;13.452;2022-07-04T01:20:43;21.70;88.00
21612;DHT22;47005;52.292;13.452;2022-07-04T01:23:09;21.70;87.90
21612;DHT22;47005;52.292;13.452;2022-07-04T01:25:35;21.70;87.50
21612;DHT22;47005;52.292;13.452;2022-07-04T01:28:01;21.70;88.30
21612;DHT22;47005;52.292;13.452;2022-07-04T01:30:28;21.70;88.10
21612;DHT22;47005;52.292;13.452;2022-07-04T01:32:54;21.60;87.90
21612;DHT22;47005;52.292;13.452;2022-07-04T01:35:20;21.60;87.80
21612;DHT22;47005;52.292;13.452;2022-07-04T01:37:46;21.60;87.90
21612;DHT22;47005;52.292;13.452;2022-07-04T01:40:12;21.60;88.40
21612;DHT22;47005;52.292;13.452;2022-07-04T01:42:39;21.60;88.10
21612;DHT22;47005;52.292;13.452;2022-07-04T01:45:05;21.60;88.30
21612;DHT22;47005;52.292;13.452;2022-07-04T01:47:31;21.50;88.10
21612;DHT22;47005;52.292;13.452;2022-07-04T01:49:57;21.50;88.40
21612;DHT22;47005;52.292;13.452;2022-07-04T01:52:23;21.50;89.00
21612;DHT22;47005;52.292;13.452;2022-07-04T01:54:49;21.50;89.10
21612;DHT22;47005;52.292;13.452;2022-07-04T01:57:14;21.40;89.40
21612;DHT22;47005;52.292;13.452;2022-07-04T01:59:40;21.40;89.40
21612;DHT22;47005;52.292;13.452;2022-07-04T02:02:24;21.40;89.80
21612;DHT22;47005;52.292;13.452;2022-07-04T02:04:50;21.40;90.00
21612;DHT22;47005;52.292;13.452;2022-07-04T02:07:16;21.30;90.00
21612;DHT22;47005;52.292;13.452;2022-07-04T02:09:42;21.30;90.10
21612;DHT22;47005;52.292;13.452;2022-07-04T02:12:08;21.30;90.30
21612;DHT22;47005;52.292;13.452;2022-07-04T02:14:52;21.20;90.30
21612;DHT22;47005;52.292;13.452;2022-07-04T02:17:17;21.20;90.40
21612;DHT22;47005;52.292;13.452;2022-07-04T02:19:43;21.20;90.40
21612;DHT22;47005;52.292;13.452;2022-07-04T02:22:09;21.20;90.40
21612;DHT22;47005;52.292;13.452;2022-07-04T02:24:34;21.10;90.50
21612;DHT22;47005;52.292;13.452;2022-07-04T02:27:00;21.10;90.60
21612;DHT22;47005;52.292;13.452;2022-07-04T02:29:26;21.10;90.90
21612;DHT22;47005;52.292;13.452;2022-07-04T02:31:52;21.00;90.80
21612;DHT22;47005;52.292;13.452;2022-07-04T02:34:17;21.00;91.00
21612;DHT22;47005;52.292;13.452;2022-07-04T02:36:43;21.00;91.30
21612;DHT22;47005;52.292;13.452;2022-07-04T02:39:09;21.00;91.60
21612;DHT22;47005;52.292;13.452;2022-07-04T02:41:34;20.90;91.70
21612;DHT22;47005;52.292;13.452;2022-07-04T02:44:00;20.90;91.60
21612;DHT22;47005;52.292;13.452;2022-07-04T02:46:26;20.90;92.50
21612;DHT22;47005;52.292;13.452;2022-07-04T02:48:51;20.90;92.20
21612;DHT22;47005;52.292;13.452;2022-07-04T02:51:17;20.80;92.00
21612;DHT22;47005;52.292;13.452;2022-07-04T02:53:42;20.70;92.20
21612;DHT22;47005;52.292;13.452;2022-07-04T02:56:08;20.70;92.40
21612;DHT22;47005;52.292;13.452;2022-07-04T02:58:34;20.70;92.20
21612;DHT22;47005;52.292;13.452;2022-07-04T03:01:00;20.70;92.50
21612;DHT22;47005;52.292;13.452;2022-07-04T03:03:26;20.70;92.60
21612;DHT22;47005;52.292;13.452;2022-07-04T03:05:52;20.60;92.60
21612;DHT22;47005;52.292;13.452;2022-07-04T03:08:18;20.60;92.60
21612;DHT22;47005;52.292;13.452;2022-07-04T03:10:44;20.60;92.50
21612;DHT22;47005;52.292;13.452;2022-07-04T03:13:10;20.50;92.60
21612;DHT22;47005;52.292;13.452;2022-07-04T03:15:35;20.50;92.90
21612;DHT22;47005;52.292;13.452;2022-07-04T03:18:01;20.50;92.70
21612;DHT22;47005;52.292;13.452;2022-07-04T03:20:27;20.50;92.80
21612;DHT22;47005;52.292;13.452;2022-07-04T03:22:52;20.50;92.90
21612;DHT22;47005;52.292;13.452;2022-07-04T03:25:20;20.50;93.00
21612;DHT22;47005;52.292;13.452;2022-07-04T03:27:46;20.50;93.00
21612;DHT22;47005;52.292;13.452;2022-07-04T03:30:12;20.40;93.40
21612;DHT22;47005;52.292;13.452;2022-07-04T03:32:38;20.40;93.40
21612;DHT22;47005;52.292;13.452;2022-07-04T03:35:04;20.40;93.60
21612;DHT22;47005;52.292;13.452;2022-07-04T03:37:30;20.40;93.60
21612;DHT22;47005;52.292;13.452;2022-07-04T03:39:56;20.30;93.50
21612;DHT22;47005;52.292;13.452;2022-07-04T03:42:21;20.30;93.80
21612;DHT22;47005;52.292;13.452;2022-07-04T03:44:47;20.40;93.90
21612;DHT22;47005;52.292;13.452;2022-07-04T03:47:13;20.30;93.80
21612;DHT22;47005;52.292;13.452;2022-07-04T03:49:38;20.30;94.00
21612;DHT22;47005;52.292;13.452;2022-07-04T03:52:04;20.30;94.50
21612;DHT22;47005;52.292;13.452;2022-07-04T03:54:30;20.20;94.00
21612;DHT22;47005;52.292;13.452;2022-07-04T03:56:55;20.20;94.30
21612;DHT22;47005;52.292;13.452;2022-07-04T03:59:21;20.20;94.60
21612;DHT22;47005;52.292;13.452;2022-07-04T04:01:47;20.20;94.30
21612;DHT22;47005;52.292;13.452;2022-07-04T04:04:12;20.20;94.60
21612;DHT22;47005;52.292;13.452;2022-07-04T04:06:56;20.20;94.80
21612;DHT22;47005;52.292;13.452;2022-07-04T04:09:22;20.20;94.90
21612;DHT22;47005;52.292;13.452;2022-07-04T04:11:53;20.20;95.00
21612;DHT22;47005;52.292;13.452;2022-07-04T04:14:19;20.10;95.50
21612;DHT22;47005;52.292;13.452;2022-07-04T04:16:44;20.10;95.20
21612;DHT22;47005;52.292;13.452;2022-07-04T04:19:10;20.10;95.50
21612;DHT22;47005;52.292;13.452;2022-07-04T04:21:36;20.10;96.10
21612;DHT22;47005;52.292;13.452;2022-07-04T04:24:02;20.10;95.30
21612;DHT22;47005;52.292;13.452;2022-07-04T04:26:28;20.00;95.20
21612;DHT22;47005;52.292;13.452;2022-07-04T04:28:54;20.10;95.40
21612;DHT22;47005;52.292;13.452;2022-07-04T04:31:20;20.10;95.40
21612;DHT22;47005;52.292;13.452;2022-07-04T04:33:45;20.00;95.70
21612;DHT22;47005;52.292;13.452;2022-07-04T04:36:11;20.10;95.60
21612;DHT22;47005;52.292;13.452;2022-07-04T04:38:36;20.00;95.40
21612;DHT22;47005;52.292;13.452;2022-07-04T04:41:02;20.10;95.40
21612;DHT22;47005;52.292;13.452;2022-07-04T04:43:28;20.00;95.50
21612;DHT22;47005;52.292;13.452;2022-07-04T04:45:54;20.10;95.80
21612;DHT22;47005;52.292;13.452;2022-07-04T04:48:19;20.00;95.90
21612;DHT22;47005;52.292;13.452;2022-07-04T04:50:45;20.10;96.20
21612;DHT22;47005;52.292;13.452;2022-07-04T04:53:11;20.10;95.80
21612;DHT22;47005;52.292;13.452;2022-07-04T04:55:37;20.10;95.80
21612;DHT22;47005;52.292;13.452;2022-07-04T04:58:02;20.10;95.80
21612;DHT22;47005;52.292;13.452;2022-07-04T05:00:28;20.10;96.10
21612;DHT22;47005;52.292;13.452;2022-07-04T05:02:53;20.10;96.40
21612;DHT22;47005;52.292;13.452;2022-07-04T05:05:19;20.10;96.40
21612;DHT22;47005;52.292;13.452;2022-07-04T05:07:45;20.10;96.20
21612;DHT22;47005;52.292;13.452;2022-07-04T05:10:11;20.10;96.20
21612;DHT22;47005;52.292;13.452;2022-07-04T05:12:36;20.10;96.40
21612;DHT22;47005;52.292;13.452;2022-07-04T05:15:02;20.10;96.80
21612;DHT22;47005;52.292;13.452;2022-07-04T05:17:28;20.10;96.50
21612;DHT22;47005;52.292;13.452;2022-07-04T05:19:54;20.10;96.50
21612;DHT22;47005;52.292;13.452;2022-07-04T05:22:19;20.10;96.50
21612;DHT22;47005;52.292;13.452;2022-07-04T05:24:45;20.10;96.40
21612;DHT22;47005;52.292;13.452;2022-07-04T05:27:10;20.10;96.50
21612;DHT22;47005;52.292;13.452;2022-07-04T05:29:36;20.10;96.70
21612;DHT22;47005;52.292;13.452;2022-07-04T05:32:03;20.10;96.80
21612;DHT22;47005;52.292;13.452;2022-07-04T05:34:29;20.10;96.80
21612;DHT22;47005;52.292;13.452;2022-07-04T05:36:54;20.20;96.80
21612;DHT22;47005;52.292;13.452;2022-07-04T05:39:20;20.20;96.80
21612;DHT22;47005;52.292;13.452;2022-07-04T05:41:46;20.20;96.50
21612;DHT22;47005;52.292;13.452;2022-07-04T05:44:12;20.20;96.50
21612;DHT22;47005;52.292;13.452;2022-07-04T05:46:37;20.20;96.50
21612;DHT22;47005;52.292;13.452;2022-07-04T05:49:03;20.30;96.40
21612;DHT22;47005;52.292;13.452;2022-07-04T05:51:28;20.30;96.50
21612;DHT22;47005;52.292;13.452;2022-07-04T05:53:54;20.30;96.30
21612;DHT22;47005;52.292;13.452;2022-07-04T05:56:20;20.30;96.30
21612;DHT22;47005;52.292;13.452;2022-07-04T05:58:45;20.30;96.40
21612;DHT22;47005;52.292;13.452;2022-07-04T06:01:11;20.30;96.30
21612;DHT22;47005;52.292;13.452;2022-07-04T06:03:37;20.30;96.30
21612;DHT22;47005;52.292;13.452;2022-07-04T06:06:03;20.40;96.20
21612;DHT22;47005;52.292;13.452;2022-07-04T06:08:29;20.40;96.30
21612;DHT22;47005;52.292;13.452;2022-07-04T06:10:55;20.40;96.30
21612;DHT22;47005;52.292;13.452;2022-07-04T06:13:20;20.40;96.20
21612;DHT22;47005;52.292;13.452;2022-07-04T06:15:46;20.40;95.90
21612;DHT22;47005;52.292;13.452;2022-07-04T06:18:12;20.40;95.70
21612;DHT22;47005;52.292;13.452;2022-07-04T06:20:38;20.40;95.50
21612;DHT22;47005;52.292;13.452;2022-07-04T06:23:06;20.40;95.50
21612;DHT22;47005;52.292;13.452;2022-07-04T06:25:32;20.40;95.60
21612;DHT22;47005;52.292;13.452;2022-07-04T06:27:58;20.40;95.50
21612;DHT22;47005;52.292;13.452;2022-07-04T06:30:23;20.50;95.40
21612;DHT22;47005;52.292;13.452;2022-07-04T06:32:51;20.50;95.40
21612;DHT22;47005;52.292;13.452;2022-07-04T06:35:21;20.50;95.30
21612;DHT22;47005;52.292;13.452;2022-07-04T06:38:05;20.50;95.10
21612;DHT22;47005;52.292;13.452;2022-07-04T06:40:31;20.50;95.10
21612;DHT22;47005;52.292;13.452;2022-07-04T06:42:57;20.50;95.10
21612;DHT22;47005;52.292;13.452;2022-07-04T06:45:22;20.50;94.80
21612;DHT22;47005;52.292;13.452;2022-07-04T06:47:48;20.50;94.50
21612;DHT22;47005;52.292;13.452;2022-07-04T06:50:13;20.60;94.60
21612;DHT22;47005;52.292;13.452;2022-07-04T06:52:39;20.60;94.70
21612;DHT22;47005;52.292;13.452;2022-07-04T06:55:06;20.60;94.50
21612;DHT22;47005;52.292;13.452;2022-07-04T06:57:32;20.60;94.60
21612;DHT22;47005;52.292;13.452;2022-07-04T06:59:57;20.70;94.50
21612;DHT22;47005;52.292;13.452;2022-07-04T07:02:23;20.70;94.20
21612;DHT22;47005;52.292;13.452;2022-07-04T07:04:48;20.70;94.00
21612;DHT22;47005;52.292;13.452;2022-07-04T07:07:14;20.70;93.90
21612;DHT22;47005;52.292;13.452;2022-07-04T07:09:40;20.70;93.80
21612;DHT22;47005;52.292;13.452;2022-07-04T07:12:05;20.70;93.20
21612;DHT22;47005;52.292;13.452;2022-07-04T07:14:31;20.70;93.50
21612;DHT22;47005;52.292;13.452;2022-07-04T07:16:57;20.70;93.50
21612;DHT22;47005;52.292;13.452;2022-07-04T07:19:22;20.70;93.40
21612;DHT22;47005;52.292;13.452;2022-07-04T07:21:48;20.70;93.30
21612;DHT22;47005;52.292;13.452;2022-07-04T07:24:13;20.70;93.10
21612;DHT22;47005;52.292;13.452;2022-07-04T07:26:39;20.80;92.70
21612;DHT22;47005;52.292;13.452;2022-07-04T07:29:05;20.70;92.30
21612;DHT22;47005;52.292;13.452;2022-07-04T07:31:31;20.80;92.00
21612;DHT22;47005;52.292;13.452;2022-07-04T07:33:57;20.80;92.40
21612;DHT22;47005;52.292;13.452;2022-07-04T07:36:22;20.80;92.10
21612;DHT22;47005;52.292;13.452;2022-07-04T07:38:48;20.80;92.60
21612;DHT22;47005;52.292;13.452;2022-07-04T07:41:13;20.80;92.30
21612;DHT22;47005;52.292;13.452;2022-07-04T07:43:39;20.90;92.10
21612;DHT22;47005;52.292;13.452;2022-07-04T07:46:06;20.90;92.00
21612;DHT22;47005;52.292;13.452;2022-07-04T07:48:32;20.90;91.60
21612;DHT22;47005;52.292;13.452;2022-07-04T07:50:58;20.90;91.20
21612;DHT22;47005;52.292;13.452;2022-07-04T07:53:24;20.90;91.20
21612;DHT22;47005;52.292;13.452;2022-07-04T07:55:49;20.90;91.20
21612;DHT22;47005;52.292;13.452;2022-07-04T07:58:15;21.00;91.40
21612;DHT22;47005;52.292;13.452;2022-07-04T08:00:41;20.90;91.30
21612;DHT22;47005;52.292;13.452;2022-07-04T08:03:06;21.00;90.60
21612;DHT22;47005;52.292;13.452;2022-07-04T08:05:51;21.00;90.90
21612;DHT22;47005;52.292;13.452;2022-07-04T08:08:16;21.00;90.60
21612;DHT22;47005;52.292;13.452;2022-07-04T08:10:42;21.00;90.80
21612;DHT22;47005;52.292;13.452;2022-07-04T08:13:08;21.00;90.40
21612;DHT22;47005;52.292;13.452;2022-07-04T08:15:33;21.00;90.40
21612;DHT22;47005;52.292;13.452;2022-07-04T08:18:00;21.10;90.80
21612;DHT22;47005;52.292;13.452;2022-07-04T08:20:25;21.10;90.70
21612;DHT22;47005;52.292;13.452;2022-07-04T08:22:51;21.10;89.60
21612;DHT22;47005;52.292;13.452;2022-07-04T08:25:17;21.10;89.10
21612;DHT22;47005;52.292;13.452;2022-07-04T08:27:43;21.20;89.10
21612;DHT22;47005;52.292;13.452;2022-07-04T08:30:09;21.20;89.30
21612;DHT22;47005;52.292;13.452;2022-07-04T08:32:35;21.20;89.10
21612;DHT22;47005;52.292;13.452;2022-07-04T08:35:05;21.20;88.50
21612;DHT22;47005;52.292;13.452;2022-07-04T08:37:30;21.20;87.30
21612;DHT22;47005;52.292;13.452;2022-07-04T08:39:56;21.20;88.10
21612;DHT22;47005;52.292;13.452;2022-07-04T08:42:22;21.20;88.20
21612;DHT22;47005;52.292;13.452;2022-07-04T08:44:53;21.20;88.30
21612;DHT22;47005;52.292;13.452;2022-07-04T08:47:20;21.20;87.30
21612;DHT22;47005;52.292;13.452;2022-07-04T08:49:58;21.20;87.80
21612;DHT22;47005;52.292;13.452;2022-07-04T08:52:36;21.20;86.20
21612;DHT22;47005;52.292;13.452;2022-07-04T08:55:04;21.10;87.80
21612;DHT22;47005;52.292;13.452;2022-07-04T08:57:48;21.20;87.60
21612;DHT22;47005;52.292;13.452;2022-07-04T09:00:34;21.10;86.70
21612;DHT22;47005;52.292;13.452;2022-07-04T09:03:02;21.10;85.40
21612;DHT22;47005;52.292;13.452;2022-07-04T09:05:28;21.10;84.60
21612;DHT22;47005;52.292;13.452;2022-07-04T09:07:54;21.20;85.30
21612;DHT22;47005;52.292;13.452;2022-07-04T09:10:21;21.20;83.10
21612;DHT22;47005;52.292;13.452;2022-07-04T09:12:47;21.20;83.40
21612;DHT22;47005;52.292;13.452;2022-07-04T09:15:14;21.20;82.90
21612;DHT22;47005;52.292;13.452;2022-07-04T09:17:40;21.20;82.90
21612;DHT22;47005;52.292;13.452;2022-07-04T09:20:15;21.20;84.10
21612;DHT22;47005;52.292;13.452;2022-07-04T09:22:41;21.20;84.50
21612;DHT22;47005;52.292;13.452;2022-07-04T09:25:07;21.20;81.40
21612;DHT22;47005;52.292;13.452;2022-07-04T09:29:59;21.20;83.00
21612;DHT22;47005;52.292;13.452;2022-07-04T09:35:01;21.20;83.90
21612;DHT22;47005;52.292;13.452;2022-07-04T09:37:34;21.20;82.90
21612;DHT22;47005;52.292;13.452;2022-07-04T09:40:00;21.20;83.90
21612;DHT22;47005;52.292;13.452;2022-07-04T09:42:34;21.30;84.50
21612;DHT22;47005;52.292;13.452;2022-07-04T09:45:04;21.30;85.10
21612;DHT22;47005;52.292;13.452;2022-07-04T09:47:31;21.30;83.80
21612;DHT22;47005;52.292;13.452;2022-07-04T09:52:28;21.40;84.20
21612;DHT22;47005;52.292;13.452;2022-07-04T09:55:02;21.40;83.20
21612;DHT22;47005;52.292;13.452;2022-07-04T09:57:31;21.40;83.70
21612;DHT22;47005;52.292;13.452;2022-07-04T10:00:48;21.40;83.60
21612;DHT22;47005;52.292;13.452;2022-07-04T10:03:20;21.50;82.80
21612;DHT22;47005;52.292;13.452;2022-07-04T10:06:04;21.50;80.40
21612;DHT22;47005;52.292;13.452;2022-07-04T10:08:30;21.50;80.70
21612;DHT22;47005;52.292;13.452;2022-07-04T10:10:57;21.50;80.80
21612;DHT22;47005;52.292;13.452;2022-07-04T10:13:23;21.50;80.80
21612;DHT22;47005;52.292;13.452;2022-07-04T10:15:49;21.60;81.50
21612;DHT22;47005;52.292;13.452;2022-07-04T10:18:18;21.60;80.80
21612;DHT22;47005;52.292;13.452;2022-07-04T10:20:44;21.60;81.20
21612;DHT22;47005;52.292;13.452;2022-07-04T10:23:11;21.60;80.90
21612;DHT22;47005;52.292;13.452;2022-07-04T10:25:37;21.60;81.30
21612;DHT22;47005;52.292;13.452;2022-07-04T10:28:03;21.70;81.00
21612;DHT22;47005;52.292;13.452;2022-07-04T10:30:32;21.70;80.20
21612;DHT22;47005;52.292;13.452;2022-07-04T10:33:04;21.70;80.60
21612;DHT22;47005;52.292;13.452;2022-07-04T10:38:23;21.80;80.00
21612;DHT22;47005;52.292;13.452;2022-07-04T10:48:32;21.90;78.70
21612;DHT22;47005;52.292;13.452;2022-07-04T10:51:01;21.90;79.40
21612;DHT22;47005;52.292;13.452;2022-07-04T10:53:27;21.90;79.70
21612;DHT22;47005;52.292;13.452;2022-07-04T10:55:53;22.00;80.10
21612;DHT22;47005;52.292;13.452;2022-07-04T10:58:56;22.00;79.90
21612;DHT22;47005;52.292;13.452;2022-07-04T11:01:25;22.00;80.10
21612;DHT22;47005;52.292;13.452;2022-07-04T11:03:52;22.00;79.60
21612;DHT22;47005;52.292;13.452;2022-07-04T11:09:16;22.10;80.50
21612;DHT22;47005;52.292;13.452;2022-07-04T11:12:02;22.10;80.60
21612;DHT22;47005;52.292;13.452;2022-07-04T11:14:45;22.10;80.80
21612;DHT22;47005;52.292;13.452;2022-07-04T11:17:20;22.10;80.70
21612;DHT22;47005;52.292;13.452;2022-07-04T11:19:47;22.10;80.00
21612;DHT22;47005;52.292;13.452;2022-07-04T11:22:22;22.10;78.50
21612;DHT22;47005;52.292;13.452;2022-07-04T11:24:48;22.10;79.40
21612;DHT22;47005;52.292;13.452;2022-07-04T11:27:14;22.10;79.50
21612;DHT22;47005;52.292;13.452;2022-07-04T11:29:50;22.10;79.70
21612;DHT22;47005;52.292;13.452;2022-07-04T11:32:16;22.10;80.10
21612;DHT22;47005;52.292;13.452;2022-07-04T11:34:41;22.10;79.50
21612;DHT22;47005;52.292;13.452;2022-07-04T11:37:07;22.10;79.70
21612;DHT22;47005;52.292;13.452;2022-07-04T11:39:33;22.10;79.60
21612;DHT22;47005;52.292;13.452;2022-07-04T11:41:59;22.10;79.50
21612;DHT22;47005;52.292;13.452;2022-07-04T11:44:43;22.10;80.80
21612;DHT22;47005;52.292;13.452;2022-07-04T11:47:38;22.10;80.60
21612;DHT22;47005;52.292;13.452;2022-07-04T11:55:14;22.20;79.10
21612;DHT22;47005;52.292;13.452;2022-07-04T11:57:45;22.20;77.80
21612;DHT22;47005;52.292;13.452;2022-07-04T12:00:16;22.30;76.50
21612;DHT22;47005;52.292;13.452;2022-07-04T12:02:43;22.30;77.70
21612;DHT22;47005;52.292;13.452;2022-07-04T12:05:11;22.30;77.30
21612;DHT22;47005;52.292;13.452;2022-07-04T12:07:39;22.40;78.30
21612;DHT22;47005;52.292;13.452;2022-07-04T12:10:12;22.40;78.60
21612;DHT22;47005;52.292;13.452;2022-07-04T12:13:13;22.50;76.80
21612;DHT22;47005;52.292;13.452;2022-07-04T12:15:45;22.50;78.10
21612;DHT22;47005;52.292;13.452;2022-07-04T12:18:18;22.60;78.40
21612;DHT22;47005;52.292;13.452;2022-07-04T12:20:45;22.60;77.90
21612;DHT22;47005;52.292;13.452;2022-07-04T12:23:10;22.70;76.10
21612;DHT22;47005;52.292;13.452;2022-07-04T12:25:37;22.70;76.00
21612;DHT22;47005;52.292;13.452;2022-07-04T12:30:37;22.80;76.90
21612;DHT22;47005;52.292;13.452;2022-07-04T12:33:07;22.80;77.30
21612;DHT22;47005;52.292;13.452;2022-07-04T12:35:55;22.80;76.90
21612;DHT22;47005;52.292;13.452;2022-07-04T12:48:34;23.20;73.40
21612;DHT22;47005;52.292;13.452;2022-07-04T12:53:43;23.30;74.80
21612;DHT22;47005;52.292;13.452;2022-07-04T12:56:10;23.30;74.90
21612;DHT22;47005;52.292;13.452;2022-07-04T12:58:36;23.40;71.50
21612;DHT22;47005;52.292;13.452;2022-07-04T13:01:03;23.40;72.00
21612;DHT22;47005;52.292;13.452;2022-07-04T13:03:28;23.40;72.20
21612;DHT22;47005;52.292;13.452;2022-07-04T13:05:54;23.40;72.10
21612;DHT22;47005;52.292;13.452;2022-07-04T13:08:22;23.40;71.80
21612;DHT22;47005;52.292;13.452;2022-07-04T13:10:48;23.40;72.70
21612;DHT22;47005;52.292;13.452;2022-07-04T13:13:34;23.40;70.80
21612;DHT22;47005;52.292;13.452;2022-07-04T13:16:00;23.40;72.10
21612;DHT22;47005;52.292;13.452;2022-07-04T13:18:26;23.40;72.00
21612;DHT22;47005;52.292;13.452;2022-07-04T13:20:51;23.40;72.00
21612;DHT22;47005;52.292;13.452;2022-07-04T13:23:17;23.40;70.40
21612;DHT22;47005;52.292;13.452;2022-07-04T13:25:42;23.40;71.10
21612;DHT22;47005;52.292;13.452;2022-07-04T13:28:08;23.50;72.40
21612;DHT22;47005;52.292;13.452;2022-07-04T13:30:34;23.50;71.80
21612;DHT22;47005;52.292;13.452;2022-07-04T13:32:59;23.40;72.20
21612;DHT22;47005;52.292;13.452;2022-07-04T13:35:25;23.40;71.80
21612;DHT22;47005;52.292;13.452;2022-07-04T13:37:50;23.40;68.60
21612;DHT22;47005;52.292;13.452;2022-07-04T13:40:16;23.40;69.60
21612;DHT22;47005;52.292;13.452;2022-07-04T13:42:42;23.40;71.00
21612;DHT22;47005;52.292;13.452;2022-07-04T13:45:33;23.40;71.80
21612;DHT22;47005;52.292;13.452;2022-07-04T13:47:59;23.40;68.10
21612;DHT22;47005;52.292;13.452;2022-07-04T13:50:25;23.40;69.70
21612;DHT22;47005;52.292;13.452;2022-07-04T13:52:51;23.40;70.40
21612;DHT22;47005;52.292;13.452;2022-07-04T13:55:17;23.40;70.80
21612;DHT22;47005;52.292;13.452;2022-07-04T13:57:42;23.40;70.50
21612;DHT22;47005;52.292;13.452;2022-07-04T14:00:08;23.40;70.90
21612;DHT22;47005;52.292;13.452;2022-07-04T14:02:35;23.40;70.50
21612;DHT22;47005;52.292;13.452;2022-07-04T14:05:00;23.40;70.30
21612;DHT22;47005;52.292;13.452;2022-07-04T14:07:26;23.40;70.90
21612;DHT22;47005;52.292;13.452;2022-07-04T14:09:52;23.40;69.30
21612;DHT22;47005;52.292;13.452;2022-07-04T14:12:18;23.40;69.30
21612;DHT22;47005;52.292;13.452;2022-07-04T14:14:44;23.40;69.50
21612;DHT22;47005;52.292;13.452;2022-07-04T14:17:10;23.40;69.40
21612;DHT22;47005;52.292;13.452;2022-07-04T14:19:35;23.40;69.30
21612;DHT22;47005;52.292;13.452;2022-07-04T14:22:01;23.40;69.50
21612;DHT22;47005;52.292;13.452;2022-07-04T14:24:26;23.40;69.50
21612;DHT22;47005;52.292;13.452;2022-07-04T14:26:53;23.40;69.50
21612;DHT22;47005;52.292;13.452;2022-07-04T14:29:19;23.30;68.90
21612;DHT22;47005;52.292;13.452;2022-07-04T14:31:44;23.30;69.40
21612;DHT22;47005;52.292;13.452;2022-07-04T14:34:10;23.30;68.30
21612;DHT22;47005;52.292;13.452;2022-07-04T14:36:38;23.30;67.70
21612;DHT22;47005;52.292;13.452;2022-07-04T14:39:04;23.30;69.10
21612;DHT22;47005;52.292;13.452;2022-07-04T14:41:29;23.30;68.80
21612;DHT22;47005;52.292;13.452;2022-07-04T14:43:55;23.30;69.60
21612;DHT22;47005;52.292;13.452;2022-07-04T14:46:21;23.30;69.60
21612;DHT22;47005;52.292;13.452;2022-07-04T14:48:46;23.30;70.60
21612;DHT22;47005;52.292;13.452;2022-07-04T14:51:12;23.30;68.40
21612;DHT22;47005;52.292;13.452;2022-07-04T14:53:38;23.30;68.70
21612;DHT22;47005;52.292;13.452;2022-07-04T14:56:04;23.20;68.30
21612;DHT22;47005;52.292;13.452;2022-07-04T14:58:29;23.30;69.50
21612;DHT22;47005;52.292;13.452;2022-07-04T15:00:55;23.30;70.10
21612;DHT22;47005;52.292;13.452;2022-07-04T15:03:21;23.20;70.10
21612;DHT22;47005;52.292;13.452;2022-07-04T15:05:47;23.20;67.30
21612;DHT22;47005;52.292;13.452;2022-07-04T15:08:12;23.20;69.10
21612;DHT22;47005;52.292;13.452;2022-07-04T15:10:38;23.10;69.50
21612;DHT22;47005;52.292;13.452;2022-07-04T15:13:04;23.20;69.00
21612;DHT22;47005;52.292;13.452;2022-07-04T15:15:30;23.10;68.10
21612;DHT22;47005;52.292;13.452;2022-07-04T15:17:55;23.10;68.90
21612;DHT22;47005;52.292;13.452;2022-07-04T15:20:24;23.10;69.70
21612;DHT22;47005;52.292;13.452;2022-07-04T15:23:08;23.10;68.90
21612;DHT22;47005;52.292;13.452;2022-07-04T15:25:52;23.10;68.60
21612;DHT22;47005;52.292;13.452;2022-07-04T15:28:18;23.10;69.30
21612;DHT22;47005;52.292;13.452;2022-07-04T15:30:43;23.10;69.80
21612;DHT22;47005;52.292;13.452;2022-07-04T15:33:09;23.20;69.50
21612;DHT22;47005;52.292;13.452;2022-07-04T15:35:43;23.20;69.00
21612;DHT22;47005;52.292;13.452;2022-07-04T15:38:09;23.20;67.30
21612;DHT22;47005;52.292;13.452;2022-07-04T15:40:35;23.20;67.90
21612;DHT22;47005;52.292;13.452;2022-07-04T15:43:01;23.30;68.10
21612;DHT22;47005;52.292;13.452;2022-07-04T15:45:27;23.40;68.30
21612;DHT22;47005;52.292;13.452;2022-07-04T15:47:52;23.40;65.90
21612;DHT22;47005;52.292;13.452;2022-07-04T15:50:18;23.40;66.20
21612;DHT22;47005;52.292;13.452;2022-07-04T15:52:43;23.50;67.30
21612;DHT22;47005;52.292;13.452;2022-07-04T15:55:09;23.70;67.70
21612;DHT22;47005;52.292;13.452;2022-07-04T15:57:35;23.80;67.70